Time;durP1;ratioP1;P1;durP2;ratioP2;P2;SDS_P1;SDS_P2;PMS_P1;PMS_P2;Temp;Humidity;BMP_temperature;BMP_pressure;BME280_temperature;BME280_humidity;BME280_pressure;Samples;Min_cycle;Max_cycle;Signal;HPM_P1;HPM_P2
2023/02/09 00:01:12;;;;;;;10.45;6.00;;;;;;;-2.73;46.63;96923.94;5074366;28;20100;-73
2023/02/09 00:03:38;;;;;;;10.15;5.35;;;;;;;-2.86;44.75;96920.16;5072727;28;20146;-73
2023/02/09 00:06:05;;;;;;;9.55;5.60;;;;;;;-2.67;51.55;96923.72;5055637;28;20529;-73
2023/02/09 00:08:31;;;;;;;10.95;6.10;;;;;;;-2.70;47.80;96925.56;5064755;28;20169;-73
2023/02/09 00:10:56;;;;;;;12.20;6.82;;;;;;;-2.83;40.08;96923.47;5073780;28;20522;-73
2023/02/09 00:13:21;;;;;;;12.35;6.15;;;;;;;-2.80;48.91;96917.28;5070283;28;20100;-73
2023/02/09 00:15:51;;;;;;;11.75;5.88;;;;;;;-2.66;50.34;96916.72;5074967;28;20078;-73
2023/02/09 00:18:16;;;;;;;;;;;;;;;-2.78;50.46;96918.91;5072999;28;20436;-73
2023/02/09 00:20:42;;;;;;;16.60;7.25;;;;;;;-2.96;41.72;96917.06;5074096;28;19990;-73
2023/02/09 00:23:07;;;;;;;13.27;6.20;;;;;;;-2.82;46.93;96916.50;5071945;28;20484;-73
2023/02/09 00:25:32;;;;;;;13.95;7.63;;;;;;;-2.86;41.45;96915.78;5074189;28;20625;-73
2023/02/09 00:27:58;;;;;;;13.32;7.07;;;;;;;-3.62;46.06;96918.69;5070850;28;20085;-73
2023/02/09 00:30:23;;;;;;;11.65;5.65;;;;;;;-3.20;52.56;96915.34;5069098;28;20107;-73
2023/02/09 00:32:49;;;;;;;9.77;5.78;;;;;;;-3.19;52.57;96911.84;5074787;28;20103;-73
2023/02/09 00:35:14;;;;;;;10.10;6.10;;;;;;;-3.05;49.93;96911.28;5072429;28;20123;-73
2023/02/09 00:37:40;;;;;;;11.85;5.78;;;;;;;-3.09;51.66;96903.66;5072513;28;20419;-73
2023/02/09 00:40:06;;;;;;;9.60;5.93;;;;;;;-3.10;45.83;96904.56;5073980;28;20349;-73
2023/02/09 00:42:31;;;;;;;11.43;6.28;;;;;;;-3.25;50.37;96895.59;5070549;28;20077;-73
2023/02/09 00:44:57;;;;;;;11.07;6.45;;;;;;;-3.01;49.73;96892.03;5073363;28;20324;-72
2023/02/09 00:47:22;;;;;;;9.98;5.32;;;;;;;-3.07;52.71;96899.22;5074541;28;20100;-72
2023/02/09 00:49:48;;;;;;;14.43;7.43;;;;;;;-3.28;44.84;96883.53;5055154;28;20180;-72
2023/02/09 00:52:13;;;;;;;13.52;7.05;;;;;;;-3.47;47.99;96880.81;5070621;28;20201;-73
2023/02/09 00:54:38;;;;;;;10.05;5.68;;;;;;;-3.39;48.17;96878.75;5069639;28;20073;-72
2023/02/09 00:57:04;;;;;;;10.82;5.50;;;;;;;-3.29;49.79;96879.25;5071139;28;20453;-73
2023/02/09 00:59:31;;;;;;;11.00;5.85;;;;;;;-3.43;47.30;96877.19;5072616;28;20525;-72
2023/02/09 01:01:56;;;;;;;9.82;5.85;;;;;;;-3.60;48.82;96881.25;5071055;28;20096;-73
2023/02/09 01:04:22;;;;;;;12.73;6.50;;;;;;;-3.79;48.38;96879.38;5072852;28;20372;-73
2023/02/09 01:06:47;;;;;;;11.70;6.63;;;;;;;-3.72;48.34;96866.09;5071439;28;20085;-73
2023/02/09 01:09:13;;;;;;;11.05;6.03;;;;;;;-3.48;52.70;96871.28;5070525;28;20116;-73
2023/02/09 01:11:38;;;;;;;9.43;5.60;;;;;;;-3.29;48.67;96874.03;5073525;28;20372;-73
2023/02/09 01:14:03;;;;;;;12.30;6.68;;;;;;;-3.89;49.16;96865.00;5071095;28;20104;-73
2023/02/09 01:16:30;;;;;;;10.27;5.68;;;;;;;-3.30;52.56;96873.19;5070832;28;20182;-73
2023/02/09 01:18:58;;;;;;;14.70;7.18;;;;;;;-3.56;47.80;96861.19;5057740;28;20060;-73
2023/02/09 01:21:23;;;;;;;11.52;6.47;;;;;;;-3.99;46.91;96867.09;5068762;28;20587;-73
2023/02/09 01:23:48;;;;;;;9.35;5.78;;;;;;;-3.54;51.31;96870.63;5073615;28;20072;-72
2023/02/09 01:26:14;;;;;;;12.25;5.63;;;;;;;-3.52;49.80;96860.97;5051623;28;20076;-73
2023/02/09 01:28:40;;;;;;;11.85;6.78;;;;;;;-3.48;51.89;96847.84;5037611;28;20123;-73
2023/02/09 01:31:14;;;;;;;10.18;6.32;;;;;;;-3.59;46.25;96838.72;5068125;28;20096;-73
2023/02/09 01:33:40;;;;;;;10.50;5.88;;;;;;;-3.66;44.61;96835.47;5069234;28;20104;-73
2023/02/09 01:36:06;;;;;;;10.98;6.15;;;;;;;-3.80;49.74;96853.41;5070421;28;20559;-73
2023/02/09 01:38:31;;;;;;;9.40;5.57;;;;;;;-3.66;47.46;96851.09;5074135;28;20523;-73
2023/02/09 01:40:56;;;;;;;11.85;6.28;;;;;;;-4.14;48.62;96849.44;5069243;28;20099;-73
2023/02/09 01:43:22;;;;;;;16.23;7.65;;;;;;;-3.72;47.13;96840.09;5074261;28;20088;-73
2023/02/09 01:45:49;;;;;;;11.00;6.95;;;;;;;-4.12;50.18;96838.06;5059492;28;20124;-73
2023/02/09 01:48:15;;;;;;;13.80;7.18;;;;;;;-4.04;47.25;96840.41;5053317;28;20100;-73
2023/02/09 01:50:42;;;;;;;12.93;6.43;;;;;;;-4.02;49.86;96837.72;5069668;28;20093;-72
2023/02/09 01:53:08;;;;;;;11.75;6.22;;;;;;;-3.80;50.38;96833.41;5069704;28;20097;-73
2023/02/09 01:55:35;;;;;;;10.18;5.65;;;;;;;-3.99;53.06;96835.00;5055226;28;20326;-72
2023/02/09 01:58:10;;;;;;;9.65;6.03;;;;;;;-3.82;51.64;96834.38;5060264;28;20598;-73
2023/02/09 02:00:36;;;;;;;10.63;5.78;;;;;;;-3.69;46.68;96834.75;5053836;28;20193;-73
2023/02/09 02:03:04;;;;;;;11.43;6.13;;;;;;;-3.57;47.14;96834.28;5063608;28;20085;-73
2023/02/09 02:05:30;;;;;;;14.48;7.10;;;;;;;-3.71;50.50;96828.75;5068801;28;20105;-73
2023/02/09 02:08:49;;;;;;;12.95;6.15;;;;;;;-3.66;52.77;96840.69;5070080;28;20136;-73
2023/02/09 02:11:14;;;;;;;11.63;6.55;;;;;;;-3.64;48.29;96838.03;5018658;28;20181;-72
2023/02/09 02:13:40;;;;;;;9.93;5.43;;;;;;;-3.55;51.63;96832.47;5064552;28;20099;-72
2023/02/09 02:16:27;;;;;;;13.02;6.30;;;;;;;-3.24;52.52;96834.75;5068532;28;20077;-73
2023/02/09 02:19:07;;;;;;;10.52;5.97;;;;;;;-3.48;51.02;96829.63;5069904;28;20096;-73
2023/02/09 02:21:53;;;;;;;12.13;6.70;;;;;;;-3.84;49.56;96820.59;5067612;28;20108;-73
2023/02/09 02:24:46;;;;;;;10.98;5.47;;;;;;;-3.55;51.55;96834.22;5072316;28;20097;-73
2023/02/09 02:27:20;;;;;;;10.48;6.15;;;;;;;-3.82;47.37;96824.81;5069079;28;20073;-73
2023/02/09 02:30:17;;;;;;;11.75;5.88;;;;;;;-3.74;49.96;96839.31;5068698;28;20111;-73
2023/02/09 02:33:00;;;;;;;12.50;7.18;;;;;;;-3.60;52.30;96833.56;5067561;28;20101;-73
2023/02/09 02:35:36;;;;;;;8.82;4.70;;;;;;;-3.52;53.01;96831.50;5071548;28;20559;-72
2023/02/09 02:38:05;;;;;;;10.05;5.10;;;;;;;-3.45;53.74;96832.97;5069827;28;20101;-73
2023/02/09 02:41:03;;;;;;;10.70;5.47;;;;;;;-3.56;49.50;96825.56;5070091;28;20108;-73
2023/02/09 02:43:52;;;;;;;15.98;7.13;;;;;;;-3.60;50.25;96826.59;5062209;28;20084;-73
2023/02/09 02:46:34;;;;;;;10.15;5.50;;;;;;;-3.69;52.77;96832.16;5046326;28;20124;-73
2023/02/09 02:49:04;;;;;;;10.38;5.95;;;;;;;-3.68;52.83;96833.84;5067989;28;20111;-73
2023/02/09 02:51:31;;;;;;;11.95;6.18;;;;;;;-3.71;51.99;96826.16;5053262;28;20111;-73
2023/02/09 02:53:57;;;;;;;13.20;7.68;;;;;;;-3.68;49.59;96826.91;5065501;28;20237;-73
2023/02/09 02:56:37;;;;;;;12.30;5.75;;;;;;;-3.67;51.77;96822.56;5076280;28;20104;-73
2023/02/09 02:59:04;;;;;;;9.90;5.88;;;;;;;-3.74;54.24;96826.28;5065326;28;20069;-73
2023/02/09 03:01:33;;;;;;;10.52;6.43;;;;;;;-3.68;53.41;96824.28;5045532;28;20127;-72
2023/02/09 03:03:59;;;;;;;9.93;5.70;;;;;;;-3.57;53.55;96823.03;5050113;28;20105;-72
2023/02/09 03:06:25;;;;;;;11.38;5.65;;;;;;;-3.61;51.31;96827.50;5049375;28;20315;-72
2023/02/09 03:08:52;;;;;;;11.70;6.18;;;;;;;-3.70;53.44;96822.66;5067257;28;20108;-72
2023/02/09 03:11:18;;;;;;;10.90;6.15;;;;;;;-3.69;53.68;96819.16;5066153;28;20106;-72
2023/02/09 03:13:49;;;;;;;14.00;7.55;;;;;;;-3.86;42.05;96809.38;5052264;28;20116;-73
2023/02/09 03:16:46;;;;;;;11.73;6.80;;;;;;;-4.28;42.24;96810.91;5067640;28;20187;-73
2023/02/09 03:19:44;;;;;;;10.65;5.85;;;;;;;-4.15;54.71;96819.13;5071253;28;20076;-73
2023/02/09 03:22:12;;;;;;;9.13;5.18;;;;;;;-3.91;54.25;96818.22;5059761;28;20108;-73
2023/02/09 03:24:53;;;;;;;13.52;7.97;;;;;;;-4.03;46.62;96813.47;5070271;28;20234;-73
2023/02/09 03:27:21;;;;;;;10.23;5.55;;;;;;;-3.91;55.43;96822.56;5068318;28;20073;-73
2023/02/09 03:29:48;;;;;;;10.00;5.47;;;;;;;-3.81;55.01;96817.84;5053755;28;21149;-73
2023/02/09 03:32:14;;;;;;;9.23;5.47;;;;;;;-3.79;55.57;96809.09;5050097;28;20128;-73
2023/02/09 03:34:39;;;;;;;10.25;5.68;;;;;;;-3.78;55.98;96812.53;5059152;28;20449;-73
2023/02/09 03:37:05;;;;;;;11.13;5.38;;;;;;;-3.74;55.41;96811.50;5053085;28;20557;-73
2023/02/09 03:39:30;;;;;;;13.45;6.40;;;;;;;-3.80;55.10;96812.59;5070927;28;20095;-73
2023/02/09 03:41:56;;;;;;;11.15;5.90;;;;;;;-3.86;54.98;96811.97;5066497;28;20097;-73
2023/02/09 03:44:27;;;;;;;9.57;5.00;;;;;;;-3.79;54.44;96816.03;5031601;28;1103656;-73
2023/02/09 03:47:10;;;;;;;13.82;6.63;;;;;;;-3.95;53.97;96805.34;5067276;28;20222;-73
2023/02/09 03:49:38;;;;;;;10.20;5.20;;;;;;;-3.81;54.55;96805.69;5069867;28;20211;-73
2023/02/09 03:52:03;;;;;;;9.32;4.95;;;;;;;-3.81;54.62;96812.63;5067693;28;20430;-73
2023/02/09 03:54:29;;;;;;;10.75;6.30;;;;;;;-3.91;52.33;96817.34;5062517;28;20084;-73
2023/02/09 03:56:55;;;;;;;9.02;5.00;;;;;;;-3.93;54.81;96806.16;5075184;28;20195;-73
2023/02/09 03:59:24;;;;;;;10.15;5.15;;;;;;;-3.90;55.59;96806.06;5074355;28;20401;-73
2023/02/09 04:01:50;;;;;;;9.77;4.95;;;;;;;-3.86;55.45;96807.63;5067218;28;20091;-73
2023/02/09 04:04:16;;;;;;;11.55;5.80;;;;;;;-3.92;53.75;96808.72;5068206;28;20120;-73
2023/02/09 04:06:41;;;;;;;9.18;4.97;;;;;;;-4.02;54.45;96807.34;5070192;28;20089;-73
2023/02/09 04:09:08;;;;;;;9.13;4.95;;;;;;;-4.00;55.86;96809.91;5075400;28;20576;-73
2023/02/09 04:11:33;;;;;;;8.77;5.13;;;;;;;-3.97;55.01;96801.97;5067600;28;20088;-72
2023/02/09 04:13:58;;;;;;;11.00;5.72;;;;;;;-3.98;54.97;96802.91;5072446;28;20108;-72
2023/02/09 04:16:24;;;;;;;15.77;8.20;;;;;;;-4.19;41.22;96797.56;5067532;28;20107;-72
2023/02/09 04:18:49;;;;;;;9.88;5.53;;;;;;;-4.30;54.29;96808.38;5072655;28;20081;-72
2023/02/09 04:21:15;;;;;;;13.23;7.78;;;;;;;-4.38;48.56;96798.22;5052794;28;20115;-72
2023/02/09 04:23:40;;;;;;;10.27;6.10;;;;;;;-4.46;51.07;96797.66;5066626;28;20245;-72
2023/02/09 04:26:05;;;;;;;9.85;5.53;;;;;;;-4.45;55.55;96792.41;5050163;28;20107;-72
2023/02/09 04:28:31;;;;;;;13.48;7.05;;;;;;;-4.48;54.05;96805.50;5070070;28;20112;-72
2023/02/09 04:30:56;;;;;;;11.00;6.03;;;;;;;-4.47;54.62;96804.63;5070009;28;20444;-72
2023/02/09 04:33:22;;;;;;;14.85;8.20;;;;;;;-4.46;47.13;96803.72;5059122;28;20108;-73
2023/02/09 04:35:48;;;;;;;19.15;9.52;;;;;;;-4.59;45.92;96808.50;5073256;28;20076;-73
2023/02/09 04:38:18;;;;;;;13.63;7.43;;;;;;;-4.51;52.28;96802.19;5065304;28;20170;-73
2023/02/09 04:40:44;;;;;;;11.07;6.63;;;;;;;-4.51;52.73;96800.44;5048595;28;20097;-72
2023/02/09 04:43:09;;;;;;;10.63;5.80;;;;;;;-4.41;56.01;96808.78;5066646;28;20079;-72
2023/02/09 04:45:37;;;;;;;10.43;5.65;;;;;;;-4.36;55.87;96808.59;5072197;28;20678;-72
2023/02/09 04:48:02;;;;;;;11.52;5.68;;;;;;;-4.33;56.22;96806.75;5074532;28;20075;-72
2023/02/09 04:50:28;;;;;;;13.93;7.47;;;;;;;-4.43;56.08;96810.56;5071415;28;20127;-72
2023/02/09 04:52:53;;;;;;;13.10;6.75;;;;;;;-4.49;56.32;96809.03;5073225;28;20123;-72
2023/02/09 04:55:19;;;;;;;10.15;5.60;;;;;;;-4.33;56.56;96814.53;5071212;28;20077;-72
2023/02/09 05:00:28;;;;;;;12.35;6.38;;;;;;;-4.39;57.16;96796.53;5072953;28;20153;-72
2023/02/09 05:02:53;;;;;;;12.40;6.22;;;;;;;-4.38;56.82;96811.22;5071659;28;20517;-73
2023/02/09 05:05:19;;;;;;;13.35;7.80;;;;;;;-4.61;55.15;96817.25;5072542;28;20105;-73
2023/02/09 05:07:45;;;;;;;11.88;6.50;;;;;;;-4.73;55.03;96819.38;5074293;28;20517;-73
2023/02/09 05:10:10;;;;;;;9.63;5.65;;;;;;;-4.42;55.39;96812.25;5070664;28;20359;-73
2023/02/09 05:12:35;;;;;;;13.25;6.82;;;;;;;-4.54;55.87;96815.28;5072655;28;20116;-72
2023/02/09 05:15:01;;;;;;;14.77;7.22;;;;;;;-4.66;53.91;96817.41;5073660;28;20080;-72
2023/02/09 05:17:26;;;;;;;11.60;6.75;;;;;;;-4.65;55.37;96813.06;5070361;28;20166;-72
2023/02/09 05:19:52;;;;;;;11.75;6.80;;;;;;;-4.50;54.31;96811.69;5074314;28;20073;-72
2023/02/09 05:22:17;;;;;;;18.20;10.13;;;;;;;-4.74;48.34;96815.09;5070233;28;20084;-72
2023/02/09 05:24:42;;;;;;;15.48;8.88;;;;;;;-4.76;50.74;96816.06;5062039;28;20104;-72
2023/02/09 05:27:08;;;;;;;11.85;5.80;;;;;;;-4.66;56.28;96821.78;5075604;28;20084;-72
2023/02/09 05:29:33;;;;;;;14.35;7.75;;;;;;;-4.70;53.11;96826.22;5070465;28;20113;-72
2023/02/09 05:31:59;;;;;;;14.27;6.40;;;;;;;-4.70;56.04;96818.41;5071362;28;20129;-73
2023/02/09 05:34:24;;;;;;;14.80;6.25;;;;;;;-4.65;55.21;96811.34;5071675;28;20530;-73
2023/02/09 05:36:49;;;;;;;13.43;6.75;;;;;;;-4.59;56.52;96805.03;5072418;28;20111;-73
2023/02/09 05:39:15;;;;;;;12.32;6.47;;;;;;;-4.60;56.57;96804.22;5070425;28;20460;-73
2023/02/09 05:44:24;;;;;;;9.32;5.22;;;;;;;-4.63;57.04;96801.72;5070881;28;20131;-72
2023/02/09 05:46:50;;;;;;;11.30;5.63;;;;;;;-4.69;57.05;96802.78;5071236;28;20085;-72
2023/02/09 05:49:15;;;;;;;11.18;6.35;;;;;;;-4.76;56.33;96795.25;5063196;28;20592;-72
2023/02/09 05:51:40;;;;;;;11.38;6.18;;;;;;;-4.89;57.35;96808.66;5068039;28;20082;-73
2023/02/09 05:54:06;;;;;;;11.82;5.97;;;;;;;-4.90;57.45;96804.38;5067665;28;20105;-73
2023/02/09 05:56:31;;;;;;;11.48;5.97;;;;;;;-4.90;57.36;96800.94;5069779;28;20105;-73
2023/02/09 05:58:57;;;;;;;10.70;6.10;;;;;;;-4.96;57.81;96799.41;5070223;28;20084;-73
2023/02/09 06:01:22;;;;;;;11.55;6.05;;;;;;;-4.94;57.25;96792.38;5071431;28;20099;-73
2023/02/09 06:03:48;;;;;;;10.00;5.55;;;;;;;-4.98;57.54;96802.03;5071513;28;20076;-72
2023/02/09 06:06:13;;;;;;;16.83;6.25;;;;;;;-5.02;57.63;96792.66;5070801;28;20342;-73
2023/02/09 06:08:38;;;;;;;12.52;6.93;;;;;;;-5.02;56.55;96789.19;5071856;28;20321;-72
2023/02/09 06:11:05;;;;;;;13.65;6.22;;;;;;;-5.04;56.99;96803.97;5071033;28;20093;-73
2023/02/09 06:13:31;;;;;;;14.55;7.15;;;;;;;-5.04;57.43;96806.56;5071981;28;20153;-72
2023/02/09 06:15:56;;;;;;;11.95;6.03;;;;;;;-5.07;57.51;96813.59;5069300;28;20132;-72
2023/02/09 06:18:21;;;;;;;12.20;6.38;;;;;;;-5.05;56.90;96803.16;5055166;28;20290;-72
2023/02/09 06:20:47;;;;;;;10.63;6.03;;;;;;;-5.04;57.31;96806.56;5068792;28;20106;-72
2023/02/09 06:23:12;;;;;;;10.10;5.93;;;;;;;-5.01;57.91;96811.66;5073587;28;20087;-72
2023/02/09 06:25:41;;;;;;;10.88;5.88;;;;;;;-4.99;57.64;96817.69;5068258;28;20765;-72
2023/02/09 06:28:06;;;;;;;13.05;6.28;;;;;;;-5.00;57.15;96821.19;5068236;28;20162;-72
2023/02/09 06:30:32;;;;;;;13.07;6.30;;;;;;;-4.98;57.79;96816.78;5074491;28;20093;-73
2023/02/09 06:32:57;;;;;;;18.20;8.23;;;;;;;-5.02;56.47;96822.97;5066826;28;20111;-73
2023/02/09 06:35:22;;;;;;;12.25;6.60;;;;;;;-5.00;58.02;96810.78;5071715;28;20081;-72
2023/02/09 06:37:48;;;;;;;10.63;6.07;;;;;;;-4.98;57.27;96825.44;5069025;28;20809;-72
2023/02/09 06:40:13;;;;;;;13.02;6.93;;;;;;;-4.98;57.12;96830.63;5072171;28;20099;-72
2023/02/09 06:42:44;;;;;;;12.25;6.53;;;;;;;-4.98;57.63;96833.22;5050953;28;20472;-72
2023/02/09 06:45:15;;;;;;;17.70;9.13;;;;;;;-5.04;54.23;96822.16;5068970;28;20491;-72
2023/02/09 06:47:41;;;;;;;12.50;6.65;;;;;;;-5.07;57.19;96823.97;5049394;28;20079;-72
2023/02/09 06:50:07;;;;;;;13.73;6.97;;;;;;;-5.07;56.38;96833.50;5050615;28;20588;-72
2023/02/09 06:52:33;;;;;;;13.57;6.25;;;;;;;-5.05;57.96;96830.84;5069647;28;20842;-72
2023/02/09 06:54:58;;;;;;;13.73;6.70;;;;;;;-5.08;57.07;96837.88;5069631;28;20237;-72
2023/02/09 06:57:23;;;;;;;11.52;6.03;;;;;;;-5.11;57.82;96827.56;5068592;28;20138;-73
2023/02/09 06:59:49;;;;;;;15.55;7.43;;;;;;;-5.14;57.35;96825.06;5072555;28;20065;-73
2023/02/09 07:02:14;;;;;;;14.50;7.78;;;;;;;-5.15;55.61;96831.16;5069982;28;20102;-72
2023/02/09 07:04:40;;;;;;;14.77;7.13;;;;;;;-5.12;57.12;96833.69;5068530;28;20194;-72
2023/02/09 07:07:05;;;;;;;17.75;9.90;;;;;;;-5.33;52.03;96817.03;5066228;28;20422;-72
2023/02/09 07:09:30;;;;;;;11.77;6.13;;;;;;;-5.21;58.25;96816.63;5068611;28;20087;-72
2023/02/09 07:11:56;;;;;;;21.23;10.60;;;;;;;-5.29;49.85;96807.38;5071783;28;20063;-72
2023/02/09 07:14:21;;;;;;;17.38;9.23;;;;;;;-5.32;55.26;96810.94;5066689;28;20059;-72
2023/02/09 07:16:46;;;;;;;12.48;6.95;;;;;;;-5.24;56.67;96814.13;5066750;28;20104;-73
2023/02/09 07:19:12;;;;;;;14.75;8.20;;;;;;;-5.19;57.38;96808.81;5072756;28;20064;-73
2023/02/09 07:21:37;;;;;;;15.30;7.75;;;;;;;-5.11;56.06;96808.53;5067270;28;20094;-73
2023/02/09 07:24:03;;;;;;;13.95;7.10;;;;;;;-5.09;56.51;96810.16;5073897;28;20417;-73
2023/02/09 07:26:28;;;;;;;12.50;6.13;;;;;;;-4.88;56.90;96812.13;5062978;28;20062;-73
2023/02/09 07:28:54;;;;;;;15.70;9.15;;;;;;;-4.80;56.51;96817.06;5061487;28;20123;-73
2023/02/09 07:31:19;;;;;;;14.93;7.55;;;;;;;-4.64;56.61;96827.75;5068808;28;20110;-73
2023/02/09 07:33:45;;;;;;;15.60;8.57;;;;;;;-4.59;54.40;96826.69;5069969;28;20094;-73
2023/02/09 07:36:11;;;;;;;16.00;8.88;;;;;;;-4.52;55.24;96819.53;5053510;28;20450;-73
2023/02/09 07:38:36;;;;;;;14.00;7.30;;;;;;;-4.40;56.29;96820.84;5064989;28;20173;-73
2023/02/09 07:41:03;;;;;;;16.05;8.23;;;;;;;-4.34;55.08;96830.19;5052866;28;20075;-73
2023/02/09 07:43:28;;;;;;;18.90;10.13;;;;;;;-4.31;53.00;96835.28;5075233;28;20074;-73
2023/02/09 07:46:01;;;;;;;12.25;6.65;;;;;;;-4.26;55.49;96840.31;5069673;28;20090;-73
2023/02/09 07:48:27;;;;;;;18.73;9.52;;;;;;;-4.33;55.37;96840.53;5072272;28;20574;-73
2023/02/09 07:50:52;;;;;;;17.75;9.85;;;;;;;-4.30;54.62;96837.84;5073963;28;20074;-73
2023/02/09 07:53:17;;;;;;;15.60;9.02;;;;;;;-4.15;52.96;96826.94;5070292;28;20098;-73
2023/02/09 07:55:43;;;;;;;16.55;9.50;;;;;;;-4.01;51.00;96821.22;5068211;28;20077;-73
2023/02/09 07:58:08;;;;;;;15.75;8.48;;;;;;;-3.91;56.06;96820.81;5066995;28;20148;-73
2023/02/09 08:00:34;;;;;;;13.23;7.45;;;;;;;-3.76;55.13;96813.34;5064296;28;20093;-73
2023/02/09 08:02:59;;;;;;;15.00;8.02;;;;;;;-3.72;55.98;96809.69;5076995;28;20073;-73
2023/02/09 08:05:37;;;;;;;18.35;8.65;;;;;;;-3.44;54.64;96802.53;5059130;28;20097;-73
2023/02/09 08:08:03;;;;;;;16.75;8.80;;;;;;;-3.41;54.73;96802.44;5061494;28;20139;-73
2023/02/09 08:10:28;;;;;;;18.25;10.13;;;;;;;-3.44;54.57;96793.00;5072030;28;20217;-73
2023/02/09 08:13:00;;;;;;;19.40;10.70;;;;;;;-3.42;52.74;96809.41;5057429;28;20726;-73
2023/02/09 08:15:46;;;;;;;23.25;12.88;;;;;;;-3.30;47.48;96815.88;5060740;28;20095;-73
2023/02/09 08:18:14;;;;;;;16.63;9.43;;;;;;;-3.73;49.73;96818.44;5074170;28;20486;-72
2023/02/09 08:20:40;;;;;;;16.10;9.32;;;;;;;-3.81;52.98;96823.06;5062537;28;20632;-73
2023/02/09 08:23:09;;;;;;;14.85;8.63;;;;;;;-3.49;54.51;96823.59;5079568;28;20124;-73
2023/02/09 08:25:34;;;;;;;15.43;8.63;;;;;;;-3.15;54.53;96830.03;5078829;28;20502;-73
2023/02/09 08:28:00;;;;;;;21.02;11.73;;;;;;;-3.09;45.29;96833.31;5072761;28;20079;-73
2023/02/09 08:30:25;;;;;;;24.45;12.50;;;;;;;-3.12;44.28;96836.03;5063035;28;20263;-73
2023/02/09 08:32:51;;;;;;;16.42;9.35;;;;;;;-2.93;49.38;96839.59;5069421;28;20125;-73
2023/02/09 08:35:16;;;;;;;17.90;9.88;;;;;;;-2.71;45.87;96837.84;5068304;28;20588;-73
2023/02/09 08:37:42;;;;;;;14.80;8.25;;;;;;;-2.62;52.56;96835.69;5071947;28;20100;-73
2023/02/09 08:40:08;;;;;;;19.05;9.95;;;;;;;-2.56;45.91;96831.97;5068585;28;20077;-73
2023/02/09 08:42:33;;;;;;;15.25;8.20;;;;;;;-2.53;52.20;96834.47;5068058;28;20521;-73
2023/02/09 08:44:58;;;;;;;20.95;10.07;;;;;;;-2.37;48.70;96836.41;5066402;28;20152;-73
2023/02/09 08:47:24;;;;;;;23.35;13.85;;;;;;;-4.03;41.25;96849.91;5069713;28;20631;-73
2023/02/09 08:49:49;;;;;;;18.20;11.30;;;;;;;-2.77;50.48;96849.38;5067765;28;20105;-73
2023/02/09 08:52:15;;;;;;;15.88;8.30;;;;;;;-3.14;53.58;96846.53;5069910;28;20420;-72
2023/02/09 08:54:41;;;;;;;22.33;13.07;;;;;;;-2.56;42.51;96836.34;5050329;28;20078;-73
2023/02/09 08:57:06;;;;;;;14.43;8.90;;;;;;;-2.12;49.73;96830.94;5077091;28;20103;-73
2023/02/09 08:59:32;;;;;;;19.92;12.07;;;;;;;-2.40;44.80;96819.13;5076149;28;20109;-73
2023/02/09 09:01:58;;;;;;;18.52;11.18;;;;;;;-2.15;45.33;96817.19;5070612;28;20132;-73
2023/02/09 09:04:23;;;;;;;17.48;9.52;;;;;;;-1.82;48.27;96826.16;5070865;28;20107;-73
2023/02/09 09:06:49;;;;;;;18.75;11.10;;;;;;;-1.87;47.28;96832.44;5074193;28;20086;-73
2023/02/09 09:09:14;;;;;;;15.63;8.82;;;;;;;-1.53;49.18;96818.75;5064615;28;20096;-73
2023/02/09 09:11:39;;;;;;;13.50;8.40;;;;;;;-1.24;49.55;96816.50;5068777;28;20079;-73
2023/02/09 09:14:05;;;;;;;15.73;8.43;;;;;;;-0.92;48.26;96813.28;5065726;28;20594;-74
2023/02/09 09:16:30;;;;;;;19.33;10.40;;;;;;;-1.18;46.08;96816.22;5066265;28;20110;-73
2023/02/09 09:18:56;;;;;;;16.70;9.63;;;;;;;-1.07;42.50;96828.75;5064465;28;20082;-73
2023/02/09 09:21:21;;;;;;;19.73;11.10;;;;;;;-1.03;38.72;96827.69;5063547;28;20544;-73
2023/02/09 09:23:47;;;;;;;15.00;9.05;;;;;;;-1.13;45.23;96832.50;5067395;28;20437;-73
2023/02/09 09:26:12;;;;;;;23.67;13.63;;;;;;;-2.13;36.45;96839.69;5060903;28;20103;-73
2023/02/09 09:28:38;;;;;;;15.50;8.23;;;;;;;-1.89;49.29;96841.28;5065991;28;20107;-73
2023/02/09 09:31:11;;;;;;;24.00;13.60;;;;;;;-1.79;36.12;96836.47;5074632;28;20579;-73
2023/02/09 09:33:36;;;;;;;22.30;12.88;;;;;;;-2.59;40.49;96837.31;5049293;28;20098;-73
2023/02/09 09:36:02;;;;;;;13.95;7.80;;;;;;;-2.06;47.22;96836.81;5071048;28;20540;-73
2023/02/09 09:38:28;;;;;;;19.45;11.30;;;;;;;-1.68;42.15;96830.75;5061518;28;20125;-73
2023/02/09 09:40:53;;;;;;;21.58;13.02;;;;;;;-1.62;38.90;96823.47;5067692;28;20092;-73
2023/02/09 09:43:27;;;;;;;18.17;11.07;;;;;;;-1.53;43.08;96821.38;5047052;28;20608;-73
2023/02/09 09:45:52;;;;;;;23.92;14.20;;;;;;;-1.43;36.44;96827.00;5047844;28;20112;-73
2023/02/09 09:48:51;;;;;;;14.65;8.40;;;;;;;-1.03;39.05;96839.88;5073586;28;20605;-73
2023/02/09 09:51:33;;;;;;;23.27;14.00;;;;;;;-1.05;34.68;96839.13;5062944;28;20633;-73
2023/02/09 09:53:59;;;;;;;18.58;11.23;;;;;;;-1.03;42.06;96837.28;5067174;28;20528;-73
2023/02/09 09:56:24;;;;;;;17.55;10.10;;;;;;;-0.96;43.53;96844.78;5068390;28;20103;-73
2023/02/09 09:58:50;;;;;;;18.88;9.93;;;;;;;-0.29;45.54;96834.53;5068673;28;20068;-73
2023/02/09 10:01:17;;;;;;;13.48;7.68;;;;;;;-0.30;46.21;96823.22;5077609;28;20763;-73
2023/02/09 10:03:42;;;;;;;16.88;10.13;;;;;;;-0.08;45.24;96828.19;5063898;28;20126;-73
2023/02/09 10:06:10;;;;;;;20.23;12.95;;;;;;;-3.54;43.06;96860.22;5062415;28;20099;-73
2023/02/09 10:08:40;;;;;;;17.92;10.57;;;;;;;-1.26;40.24;96854.91;5069424;28;20519;-73
2023/02/09 10:11:13;;;;;;;19.50;11.63;;;;;;;-0.53;40.51;96859.28;5069956;28;20831;-73
2023/02/09 10:13:39;;;;;;;20.80;13.00;;;;;;;-0.33;38.72;96873.13;5068052;28;20107;-73
2023/02/09 10:16:33;;;;;;;24.27;14.82;;;;;;;-1.73;36.53;96881.44;5061988;28;20069;-73
2023/02/09 10:19:16;;;;;;;17.70;10.85;;;;;;;-0.60;34.65;96894.50;5064418;28;20577;-73
2023/02/09 10:21:41;;;;;;;21.70;13.32;;;;;;;-0.23;33.31;96897.88;5056980;28;20095;-73
2023/02/09 10:24:47;;;;;;;15.77;9.98;;;;;;;-0.47;33.78;96900.81;5070824;28;20111;-72
2023/02/09 10:27:26;;;;;;;20.90;13.02;;;;;;;-0.90;42.47;96876.78;5069749;28;20100;-73
2023/02/09 10:29:52;;;;;;;20.73;11.88;;;;;;;-0.45;36.54;96867.56;5052746;28;20412;-73
2023/02/09 10:32:22;;;;;;;21.80;12.05;;;;;;;-0.02;34.51;96865.44;5069001;28;20281;-73
2023/02/09 10:34:52;;;;;;;15.63;9.07;;;;;;;-0.68;42.67;96878.34;5060547;28;20069;-73
2023/02/09 10:37:33;;;;;;;21.38;13.00;;;;;;;-0.93;35.01;96866.47;5047881;28;20183;-73
2023/02/09 10:40:20;;;;;;;20.40;12.43;;;;;;;-1.15;34.96;96876.16;5069775;28;20070;-73
2023/02/09 10:42:59;;;;;;;20.67;12.77;;;;;;;-0.97;35.64;96878.81;5064857;28;20550;-73
2023/02/09 10:45:44;;;;;;;18.60;10.80;;;;;;;-0.44;34.85;96884.09;5060010;28;20103;-73
2023/02/09 10:48:17;;;;;;;20.42;12.30;;;;;;;0.09;34.36;96870.94;5068520;28;20757;-73
2023/02/09 10:50:55;;;;;;;18.70;10.95;;;;;;;0.66;34.68;96874.91;5047403;28;20172;-73
2023/02/09 10:53:27;;;;;;;20.52;13.30;;;;;;;0.37;34.21;96876.50;5067033;28;20149;-73
2023/02/09 10:56:19;;;;;;;20.58;11.40;;;;;;;0.71;31.39;96872.00;5064229;28;20079;-73
2023/02/09 10:58:59;;;;;;;21.02;11.05;;;;;;;0.67;32.06;96860.88;5065831;28;20088;-73
2023/02/09 11:01:26;;;;;;;17.83;11.00;;;;;;;-0.53;34.14;96869.75;5051582;28;20100;-73
2023/02/09 11:04:20;;;;;;;24.05;14.32;;;;;;;-1.09;33.74;96878.50;5071974;28;20079;-73
2023/02/09 11:06:58;;;;;;;23.52;12.27;;;;;;;0.40;32.23;96874.56;5067666;28;20079;-73
2023/02/09 11:09:28;;;;;;;21.35;10.85;;;;;;;0.43;31.30;96861.28;5066457;28;20097;-73
2023/02/09 11:11:53;;;;;;;20.63;13.48;;;;;;;-1.89;35.13;96877.81;5070612;28;20108;-73
2023/02/09 11:14:19;;;;;;;20.75;11.90;;;;;;;-0.36;33.74;96873.25;5066953;28;20062;-73
2023/02/09 11:17:12;;;;;;;18.48;11.07;;;;;;;0.73;31.25;96870.16;5045160;28;20088;-73
2023/02/09 11:19:53;;;;;;;20.77;13.02;;;;;;;0.44;31.20;96862.13;5070698;28;20063;-73
2023/02/09 11:22:53;;;;;;;18.88;11.15;;;;;;;0.67;31.63;96871.34;5042944;28;20102;-73
2023/02/09 11:25:23;;;;;;;19.90;11.23;;;;;;;1.00;30.25;96860.81;5071366;28;20181;-73
2023/02/09 11:27:51;;;;;;;27.85;14.63;;;;;;;1.30;30.91;96863.47;5068155;28;20068;-73
2023/02/09 11:30:26;;;;;;;21.13;12.70;;;;;;;1.64;30.35;96858.06;5070758;28;20100;-73
2023/02/09 11:32:54;;;;;;;24.13;11.65;;;;;;;1.55;29.92;96851.56;5068260;28;20093;-73
2023/02/09 11:35:22;;;;;;;15.82;9.65;;;;;;;1.86;31.56;96851.53;5070224;28;20057;-73
2023/02/09 11:37:57;;;;;;;21.02;12.32;;;;;;;1.84;32.20;96843.72;5052211;28;20201;-73